createdAt,value
2023-02-16T00:01:01.243Z,24.46
2023-02-16T00:03:27.869Z,24.11
2023-02-16T00:05:54.270Z,23.36
2023-02-16T00:08:20.634Z,24.37
2023-02-16T00:10:46.982Z,24.03
2023-02-16T00:13:13.369Z,23.32
2023-02-16T00:15:39.896Z,22.87
2023-02-16T00:18:06.297Z,23.65
2023-02-16T00:20:32.670Z,23.51
2023-02-16T00:22:59.078Z,24.95
2023-02-16T00:25:25.490Z,25.22
2023-02-16T00:27:51.842Z,24.50
2023-02-16T00:30:18.276Z,23.86
2023-02-16T00:32:44.751Z,23.36
2023-02-16T00:35:11.118Z,22.44
2023-02-16T00:37:37.458Z,21.99
2023-02-16T00:40:03.852Z,21.87
2023-02-16T00:42:30.240Z,22.84
2023-02-16T00:44:56.625Z,23.10
2023-02-16T00:47:23.063Z,24.67
2023-02-16T00:49:49.471Z,24.06
2023-02-16T00:52:15.840Z,23.79
2023-02-16T00:54:42.232Z,23.32
2023-02-16T00:57:08.605Z,22.68
2023-02-16T00:59:34.945Z,23.15
2023-02-16T01:02:01.321Z,22.13
2023-02-16T01:04:27.754Z,23.89
2023-02-16T01:06:54.125Z,23.58
2023-02-16T01:09:20.483Z,23.99
2023-02-16T01:11:46.824Z,23.94
2023-02-16T01:14:13.174Z,24.26
2023-02-16T01:16:39.563Z,24.71
2023-02-16T01:19:05.922Z,24.51
2023-02-16T01:21:32.280Z,24.90
2023-02-16T01:23:58.643Z,25.13
2023-02-16T01:26:24.983Z,24.50
2023-02-16T01:28:51.371Z,24.20
2023-02-16T01:31:17.886Z,23.65
2023-02-16T01:33:44.361Z,25.13
2023-02-16T01:36:10.750Z,26.45
2023-02-16T01:38:37.154Z,26.52
2023-02-16T01:41:03.705Z,26.41
2023-02-16T01:43:30.248Z,26.70
2023-02-16T01:45:56.642Z,26.43
2023-02-16T01:48:23.008Z,26.75
2023-02-16T01:50:49.395Z,25.62
2023-02-16T01:53:15.781Z,27.01
2023-02-16T01:55:42.139Z,26.41
2023-02-16T01:58:08.522Z,25.66
2023-02-16T02:00:34.867Z,26.05
2023-02-16T02:03:02.355Z,24.24
2023-02-16T02:05:28.763Z,24.47
2023-02-16T02:07:55.121Z,25.78
2023-02-16T02:10:21.514Z,27.73
2023-02-16T02:12:47.896Z,26.51
2023-02-16T02:15:14.258Z,25.83
2023-02-16T02:17:40.638Z,25.30
2023-02-16T02:20:07.022Z,25.79
2023-02-16T02:22:33.410Z,25.03
2023-02-16T02:24:59.802Z,26.08
2023-02-16T02:27:26.152Z,25.66
2023-02-16T02:29:52.560Z,24.32
2023-02-16T02:32:19.067Z,24.90
2023-02-16T02:34:45.467Z,24.51
2023-02-16T02:37:11.848Z,25.98
2023-02-16T02:39:38.211Z,25.83
2023-02-16T02:42:04.582Z,25.03
2023-02-16T02:44:30.938Z,24.49
2023-02-16T02:46:57.343Z,24.70
2023-02-16T02:49:23.765Z,24.51
2023-02-16T02:51:50.161Z,24.39
2023-02-16T02:54:16.518Z,25.55
2023-02-16T02:56:42.876Z,24.05
2023-02-16T02:59:09.267Z,24.30
2023-02-16T03:01:35.697Z,24.29
2023-02-16T03:04:02.058Z,24.44
2023-02-16T03:06:28.435Z,25.11
2023-02-16T03:08:54.796Z,26.55
2023-02-16T03:11:21.191Z,26.46
2023-02-16T03:13:47.571Z,27.60
2023-02-16T03:16:14.015Z,27.75
2023-02-16T03:18:40.390Z,25.45
2023-02-16T03:21:06.821Z,26.23
2023-02-16T03:23:33.188Z,27.86
2023-02-16T03:25:59.542Z,28.18
2023-02-16T03:28:25.915Z,27.70
2023-02-16T03:30:52.368Z,27.02
2023-02-16T03:33:18.786Z,26.42
2023-02-16T03:35:45.140Z,26.28
2023-02-16T03:38:11.477Z,25.56
2023-02-16T03:40:37.847Z,25.93
2023-02-16T03:43:04.232Z,26.55
2023-02-16T03:45:30.680Z,26.21
2023-02-16T03:47:57.110Z,26.41
2023-02-16T03:50:23.511Z,26.84
2023-02-16T03:52:49.932Z,26.06
2023-02-16T03:55:16.297Z,25.04
2023-02-16T03:57:42.703Z,25.27
2023-02-16T04:00:09.060Z,24.11
2023-02-16T04:02:35.447Z,25.16
2023-02-16T04:05:01.815Z,25.26
2023-02-16T04:07:30.152Z,25.30
2023-02-16T04:09:57.820Z,26.47
2023-02-16T04:12:24.173Z,25.77
2023-02-16T04:14:50.512Z,25.61
2023-02-16T04:17:16.860Z,25.46
2023-02-16T04:19:43.201Z,24.91
2023-02-16T04:22:09.573Z,25.15
2023-02-16T04:24:35.930Z,25.89
2023-02-16T04:27:02.303Z,25.50
2023-02-16T04:29:28.656Z,25.02
2023-02-16T04:31:55.211Z,24.10
2023-02-16T04:34:21.662Z,24.04
2023-02-16T04:36:48.023Z,23.76
2023-02-16T04:39:14.411Z,23.50
2023-02-16T04:41:40.772Z,23.24
2023-02-16T04:44:07.156Z,22.66
2023-02-16T04:46:33.505Z,22.78
2023-02-16T04:48:59.855Z,23.33
2023-02-16T04:51:26.190Z,22.97
2023-02-16T04:53:52.586Z,23.07
2023-02-16T04:56:18.942Z,24.72
2023-02-16T04:58:45.330Z,24.55
2023-02-16T05:01:11.698Z,24.48
2023-02-16T05:03:38.067Z,23.12
2023-02-16T05:06:04.453Z,24.49
2023-02-16T05:08:30.859Z,27.02
2023-02-16T05:10:57.441Z,27.46
2023-02-16T05:13:23.837Z,26.70
2023-02-16T05:15:50.230Z,26.08
2023-02-16T05:18:16.639Z,27.59
2023-02-16T05:20:43.037Z,26.41
2023-02-16T05:23:09.449Z,26.33
2023-02-16T05:25:35.872Z,25.21
2023-02-16T05:28:02.328Z,26.90
2023-02-16T05:30:28.821Z,29.66
2023-02-16T05:32:55.254Z,27.75
2023-02-16T05:35:21.654Z,27.43
2023-02-16T05:37:48.008Z,28.67
2023-02-16T05:40:14.354Z,28.16
2023-02-16T05:42:40.740Z,27.31
2023-02-16T05:45:07.099Z,28.38
2023-02-16T05:47:33.473Z,29.57
2023-02-16T05:49:59.838Z,29.38
2023-02-16T05:52:26.175Z,29.76
2023-02-16T05:54:52.518Z,27.13
2023-02-16T05:57:18.902Z,26.79
2023-02-16T05:59:45.952Z,26.29
2023-02-16T06:02:12.342Z,25.14
2023-02-16T06:04:38.711Z,23.69
2023-02-16T06:07:05.062Z,23.15
2023-02-16T06:09:31.449Z,22.80
2023-02-16T06:11:57.840Z,21.61
2023-02-16T06:14:24.193Z,22.25
2023-02-16T06:16:50.542Z,21.40
2023-02-16T06:19:16.877Z,23.19
2023-02-16T06:21:43.222Z,26.99
2023-02-16T06:24:09.616Z,28.09
2023-02-16T06:26:36.012Z,27.53
2023-02-16T06:29:02.385Z,26.73
2023-02-16T06:31:28.832Z,27.54
2023-02-16T06:33:55.262Z,26.21
2023-02-16T06:36:21.674Z,26.43
2023-02-16T06:38:48.060Z,25.98
2023-02-16T06:41:14.459Z,24.41
2023-02-16T06:43:40.802Z,22.80
2023-02-16T06:46:07.213Z,22.91
2023-02-16T06:48:33.608Z,23.75
2023-02-16T06:51:00.019Z,23.67
2023-02-16T06:53:26.389Z,23.94
2023-02-16T06:55:52.779Z,23.14
2023-02-16T06:58:19.176Z,23.37
2023-02-16T07:00:45.598Z,24.65
2023-02-16T07:03:12.108Z,24.72
2023-02-16T07:05:38.496Z,24.02
2023-02-16T07:08:04.852Z,24.92
2023-02-16T07:10:43.914Z,23.91
2023-02-16T07:13:15.599Z,23.21
2023-02-16T07:15:41.948Z,23.58
2023-02-16T07:18:08.320Z,23.59
2023-02-16T07:20:34.801Z,23.06
2023-02-16T07:23:01.151Z,23.03
2023-02-16T07:25:27.535Z,23.14
2023-02-16T07:27:53.898Z,22.80
2023-02-16T07:30:20.284Z,23.52
2023-02-16T07:32:46.708Z,24.19
2023-02-16T07:35:13.094Z,23.82
2023-02-16T07:37:39.524Z,23.70
2023-02-16T07:40:05.938Z,23.51
2023-02-16T07:42:32.328Z,23.74
2023-02-16T07:44:58.713Z,23.86
2023-02-16T07:47:25.108Z,24.06
2023-02-16T07:49:51.466Z,24.54
2023-02-16T07:52:17.855Z,25.26
2023-02-16T07:54:44.214Z,25.09
2023-02-16T07:57:10.598Z,25.76
2023-02-16T07:59:37.025Z,26.30
2023-02-16T08:02:03.532Z,25.42
2023-02-16T08:04:29.958Z,24.43
2023-02-16T08:06:56.312Z,24.23
2023-02-16T08:09:22.660Z,23.80
2023-02-16T08:11:49.055Z,23.56
2023-02-16T08:14:15.438Z,23.68
2023-02-16T08:16:41.816Z,23.75
2023-02-16T08:19:08.264Z,23.30
2023-02-16T08:21:34.669Z,23.58
2023-02-16T08:24:01.053Z,24.74
2023-02-16T08:26:27.442Z,27.64
2023-02-16T08:28:53.799Z,29.84
2023-02-16T08:31:20.272Z,28.25
2023-02-16T08:33:46.688Z,28.04
2023-02-16T08:36:13.073Z,30.03
2023-02-16T08:38:39.428Z,31.46
2023-02-16T08:41:05.821Z,30.34
2023-02-16T08:43:32.180Z,30.02
2023-02-16T08:45:58.591Z,31.06
2023-02-16T08:48:25.000Z,33.99
2023-02-16T08:50:51.367Z,32.99
2023-02-16T08:53:17.744Z,32.93
2023-02-16T08:55:44.148Z,33.19
2023-02-16T08:58:10.579Z,32.49
2023-02-16T09:00:37.018Z,33.43
2023-02-16T09:03:03.416Z,32.85
2023-02-16T09:05:29.754Z,33.19
2023-02-16T09:07:56.095Z,32.24
2023-02-16T09:10:22.570Z,33.07
2023-02-16T09:12:48.948Z,33.03
2023-02-16T09:15:15.334Z,33.47
2023-02-16T09:17:41.682Z,32.68
2023-02-16T09:20:08.076Z,32.25
2023-02-16T09:22:34.440Z,32.96
2023-02-16T09:25:00.833Z,31.85
2023-02-16T09:27:27.230Z,32.34
2023-02-16T09:29:53.598Z,32.63
2023-02-16T09:32:20.026Z,31.76
2023-02-16T09:34:46.383Z,31.29
2023-02-16T09:37:12.772Z,29.97
2023-02-16T09:39:39.150Z,30.45
2023-02-16T09:42:05.556Z,30.41
2023-02-16T09:44:31.957Z,31.38
2023-02-16T09:46:58.361Z,30.57
2023-02-16T09:49:24.756Z,29.31
2023-02-16T09:51:51.150Z,28.18
2023-02-16T09:54:17.556Z,28.06
2023-02-16T09:56:43.962Z,26.23
2023-02-16T09:59:10.788Z,26.53
2023-02-16T10:01:38.030Z,24.95
2023-02-16T10:04:04.428Z,23.44
2023-02-16T10:06:30.780Z,23.92
2023-02-16T10:08:57.119Z,21.92
2023-02-16T10:11:23.502Z,20.54
2023-02-16T10:13:49.868Z,21.16
2023-02-16T10:16:16.260Z,21.69
2023-02-16T10:18:42.627Z,20.29
2023-02-16T10:21:08.974Z,19.44
2023-02-16T10:23:35.370Z,19.24
2023-02-16T10:26:01.724Z,19.87
2023-02-16T10:28:28.069Z,20.44
2023-02-16T10:30:54.568Z,19.24
2023-02-16T10:33:20.951Z,21.21
2023-02-16T10:35:47.339Z,20.81
2023-02-16T10:38:13.700Z,19.88
2023-02-16T10:40:40.085Z,20.32
2023-02-16T10:43:06.455Z,21.14
2023-02-16T10:45:32.842Z,22.41
2023-02-16T10:47:59.267Z,19.97
2023-02-16T10:50:25.627Z,20.08
2023-02-16T10:52:52.025Z,20.57
2023-02-16T10:55:18.387Z,21.36
2023-02-16T10:57:44.738Z,21.42
2023-02-16T11:00:11.133Z,22.02
2023-02-16T11:02:37.518Z,21.12
2023-02-16T11:05:03.922Z,21.04
2023-02-16T11:07:30.280Z,20.50
2023-02-16T11:09:56.677Z,20.28
2023-02-16T11:12:23.032Z,19.85
2023-02-16T11:14:49.380Z,20.69
2023-02-16T11:17:15.733Z,20.72
2023-02-16T11:19:42.079Z,21.43
2023-02-16T11:22:08.467Z,22.50
2023-02-16T11:24:34.853Z,22.26
2023-02-16T11:27:01.238Z,23.19
2023-02-16T11:29:27.644Z,25.83
2023-02-16T11:31:54.164Z,25.41
2023-02-16T11:34:20.674Z,24.17
2023-02-16T11:36:47.048Z,25.02
2023-02-16T11:39:13.421Z,24.83
2023-02-16T11:41:39.807Z,24.35
2023-02-16T11:44:06.158Z,24.82
2023-02-16T11:46:32.576Z,24.17
2023-02-16T11:48:58.982Z,21.66
2023-02-16T11:51:25.330Z,22.40
2023-02-16T11:53:51.708Z,24.75
2023-02-16T11:56:18.102Z,22.21
2023-02-16T11:58:44.461Z,23.61
2023-02-16T12:01:10.848Z,24.78
2023-02-16T12:03:37.256Z,23.93
2023-02-16T12:06:03.688Z,24.60
2023-02-16T12:08:30.050Z,25.13
2023-02-16T12:10:56.420Z,24.63
2023-02-16T12:13:22.812Z,23.28
2023-02-16T12:15:49.221Z,22.93
2023-02-16T12:18:15.639Z,20.51
2023-02-16T12:20:42.034Z,18.98
2023-02-16T12:23:08.379Z,18.67
2023-02-16T12:25:34.735Z,19.31
2023-02-16T12:28:01.083Z,19.60
2023-02-16T12:30:27.504Z,20.36
2023-02-16T12:32:53.879Z,21.11
2023-02-16T12:35:20.271Z,21.64
2023-02-16T12:37:46.686Z,21.24
2023-02-16T12:40:13.041Z,21.07
2023-02-16T12:42:39.421Z,22.12
2023-02-16T12:45:05.820Z,22.09
2023-02-16T12:47:32.195Z,20.83
2023-02-16T12:49:58.542Z,19.30
2023-02-16T12:52:24.954Z,20.07
2023-02-16T12:54:51.303Z,19.93
2023-02-16T12:57:17.687Z,20.28
2023-02-16T12:59:44.097Z,20.32
2023-02-16T13:02:10.463Z,19.72
2023-02-16T13:04:36.886Z,20.13
2023-02-16T13:07:03.297Z,20.65
2023-02-16T13:09:29.666Z,20.68
2023-02-16T13:11:56.067Z,21.68
2023-02-16T13:14:22.460Z,21.61
2023-02-16T13:16:48.822Z,21.36
2023-02-16T13:19:15.190Z,19.96
2023-02-16T13:21:50.976Z,18.15
2023-02-16T13:24:18.062Z,18.91
2023-02-16T13:26:44.541Z,19.04
2023-02-16T13:29:11.082Z,19.41
2023-02-16T13:31:37.641Z,18.55
2023-02-16T13:34:04.052Z,17.72
2023-02-16T13:36:30.452Z,17.01
2023-02-16T13:38:56.868Z,16.09
2023-02-16T13:41:23.266Z,15.83
2023-02-16T13:43:49.670Z,16.42
2023-02-16T13:46:16.110Z,16.70
2023-02-16T13:48:42.568Z,17.36
2023-02-16T13:51:08.936Z,17.34
2023-02-16T13:53:35.278Z,17.91
2023-02-16T13:56:01.665Z,17.93
2023-02-16T13:58:28.071Z,17.35
2023-02-16T14:00:54.451Z,16.38
2023-02-16T14:03:20.855Z,16.89
2023-02-16T14:05:47.211Z,17.49
2023-02-16T14:08:13.561Z,16.50
2023-02-16T14:10:39.951Z,16.97
2023-02-16T14:13:06.311Z,16.59
2023-02-16T14:15:32.716Z,15.74
2023-02-16T14:17:59.157Z,16.45
2023-02-16T14:20:25.725Z,16.45
2023-02-16T14:22:52.171Z,17.18
2023-02-16T14:25:18.527Z,17.06
2023-02-16T14:27:44.874Z,17.74
2023-02-16T14:30:11.240Z,17.10
2023-02-16T14:32:37.647Z,17.04
2023-02-16T14:35:04.003Z,16.37
2023-02-16T14:37:30.368Z,15.69
2023-02-16T14:40:07.761Z,14.60
2023-02-16T14:42:34.735Z,15.74
2023-02-16T14:45:01.092Z,16.91
2023-02-16T14:47:27.489Z,15.74
2023-02-16T14:49:53.885Z,16.79
2023-02-16T14:52:20.277Z,17.02
2023-02-16T14:54:46.760Z,16.81
2023-02-16T14:57:13.163Z,16.58
2023-02-16T14:59:39.518Z,16.25
2023-02-16T15:02:05.901Z,17.02
2023-02-16T15:04:32.299Z,16.65
2023-02-16T15:06:58.671Z,16.48
2023-02-16T15:09:25.042Z,18.79
2023-02-16T15:11:51.436Z,19.45
2023-02-16T15:14:17.792Z,20.04
2023-02-16T15:16:44.145Z,28.81
2023-02-16T15:19:10.509Z,23.34
2023-02-16T15:21:36.934Z,22.36
2023-02-16T15:24:03.289Z,21.70
2023-02-16T15:26:29.699Z,19.98
2023-02-16T15:28:56.073Z,19.31
2023-02-16T15:31:24.076Z,17.71
2023-02-16T15:33:50.648Z,26.44
2023-02-16T15:36:17.034Z,24.20
2023-02-16T15:38:43.436Z,19.00
2023-02-16T15:41:09.807Z,18.73
2023-02-16T15:43:36.215Z,18.12
2023-02-16T15:46:02.960Z,18.22
2023-02-16T15:48:29.586Z,17.25
2023-02-16T15:50:55.983Z,17.56
2023-02-16T15:53:22.382Z,17.00
2023-02-16T15:55:48.734Z,16.05
2023-02-16T15:58:15.123Z,16.66
2023-02-16T16:00:41.484Z,16.24
2023-02-16T16:03:07.878Z,15.76
2023-02-16T16:05:34.278Z,15.40
2023-02-16T16:08:00.642Z,15.38
2023-02-16T16:10:27.030Z,15.49
2023-02-16T16:12:53.430Z,15.17
2023-02-16T16:15:19.839Z,15.33
2023-02-16T16:17:46.239Z,15.20
2023-02-16T16:20:12.614Z,15.59
2023-02-16T16:22:39.012Z,19.16
2023-02-16T16:25:05.372Z,18.16
2023-02-16T16:27:31.734Z,19.31
2023-02-16T16:29:58.140Z,19.73
2023-02-16T16:32:24.569Z,20.09
2023-02-16T16:34:51.008Z,19.89
2023-02-16T16:37:17.374Z,20.03
2023-02-16T16:39:43.735Z,20.03
2023-02-16T16:42:10.083Z,19.16
2023-02-16T16:44:36.479Z,19.95
2023-02-16T16:47:02.851Z,18.42
2023-02-16T16:49:29.195Z,16.61
2023-02-16T16:51:55.589Z,16.57
2023-02-16T16:54:22.058Z,15.92
2023-02-16T16:56:48.419Z,16.71
2023-02-16T16:59:14.759Z,18.15
2023-02-16T17:01:41.116Z,18.95
2023-02-16T17:04:07.551Z,18.31
2023-02-16T17:06:33.921Z,17.81
2023-02-16T17:09:00.275Z,17.41
2023-02-16T17:11:26.655Z,18.11
2023-02-16T17:13:53.003Z,17.64
2023-02-16T17:16:19.378Z,17.23
2023-02-16T17:18:45.787Z,17.27
2023-02-16T17:21:12.138Z,19.82
2023-02-16T17:23:40.303Z,21.40
2023-02-16T17:26:11.273Z,19.81
2023-02-16T17:28:38.329Z,19.34
2023-02-16T17:31:04.802Z,18.74
2023-02-16T17:33:31.212Z,17.53
2023-02-16T17:35:57.558Z,17.85
2023-02-16T17:38:23.903Z,17.04
2023-02-16T17:40:50.308Z,17.36
2023-02-16T17:43:16.689Z,17.25
2023-02-16T17:45:43.144Z,17.21
2023-02-16T17:48:09.592Z,17.80
2023-02-16T17:50:36.005Z,17.12
2023-02-16T17:53:02.442Z,18.89
2023-02-16T17:55:28.865Z,18.04
2023-02-16T17:57:55.229Z,18.18
2023-02-16T18:00:21.626Z,17.31
2023-02-16T18:02:48.006Z,17.35
2023-02-16T18:05:14.365Z,16.58
2023-02-16T18:07:40.720Z,16.86
2023-02-16T18:10:07.090Z,15.62
2023-02-16T18:12:33.487Z,15.36
2023-02-16T18:14:59.845Z,15.48
2023-02-16T18:17:26.215Z,15.35
2023-02-16T18:19:52.575Z,14.78
2023-02-16T18:22:18.983Z,15.29
2023-02-16T18:24:45.346Z,14.62
2023-02-16T18:27:11.764Z,16.64
2023-02-16T18:29:38.166Z,19.60
2023-02-16T18:32:04.608Z,24.33
2023-02-16T18:34:31.005Z,23.32
2023-02-16T18:36:57.401Z,22.20
2023-02-16T18:39:23.802Z,22.04
2023-02-16T18:41:50.166Z,20.49
2023-02-16T18:44:16.561Z,20.56
2023-02-16T18:46:42.921Z,20.28
2023-02-16T18:49:09.297Z,21.16
2023-02-16T18:51:35.648Z,20.19
2023-02-16T18:54:02.040Z,25.07
2023-02-16T18:56:28.582Z,29.13
2023-02-16T18:58:54.973Z,26.73
2023-02-16T19:01:21.434Z,23.24
2023-02-16T19:03:47.880Z,22.44
2023-02-16T19:06:14.309Z,20.84
2023-02-16T19:08:40.665Z,21.25
2023-02-16T19:11:07.016Z,21.53
2023-02-16T19:13:33.510Z,21.33
2023-02-16T19:16:00.011Z,20.90
2023-02-16T19:18:26.387Z,20.35
2023-02-16T19:20:52.772Z,20.23
2023-02-16T19:23:19.197Z,20.15
2023-02-16T19:25:45.594Z,20.39
2023-02-16T19:28:11.992Z,19.21
2023-02-16T19:30:38.410Z,19.56
2023-02-16T19:33:04.842Z,18.96
2023-02-16T19:35:31.250Z,19.82
2023-02-16T19:37:57.596Z,18.77
2023-02-16T19:40:23.999Z,19.88
2023-02-16T19:42:50.449Z,20.48
2023-02-16T19:45:16.872Z,19.16
2023-02-16T19:47:43.238Z,20.17
2023-02-16T19:50:09.595Z,21.07
2023-02-16T19:52:35.978Z,20.41
2023-02-16T19:55:02.377Z,19.27
2023-02-16T19:57:28.738Z,20.74
2023-02-16T19:59:55.083Z,20.94
2023-02-16T20:02:21.482Z,20.12
2023-02-16T20:04:47.879Z,20.70
2023-02-16T20:07:14.232Z,20.68
2023-02-16T20:09:40.628Z,20.18
2023-02-16T20:12:07.032Z,18.92
2023-02-16T20:14:33.420Z,20.52
2023-02-16T20:16:59.816Z,20.48
2023-02-16T20:19:26.214Z,21.41
2023-02-16T20:21:52.571Z,20.43
2023-02-16T20:24:18.924Z,19.43
2023-02-16T20:26:45.311Z,18.98
2023-02-16T20:29:11.750Z,17.64
2023-02-16T20:31:38.206Z,18.91
2023-02-16T20:34:04.683Z,18.04
2023-02-16T20:36:31.048Z,18.31
2023-02-16T20:38:57.392Z,19.73
2023-02-16T20:41:23.757Z,20.41
2023-02-16T20:43:50.095Z,19.78
2023-02-16T20:46:16.514Z,20.13
2023-02-16T20:48:42.949Z,20.45
2023-02-16T20:51:09.354Z,20.05
2023-02-16T20:53:35.700Z,19.19
2023-02-16T20:56:02.190Z,18.82
2023-02-16T20:58:28.733Z,19.66
2023-02-16T21:00:55.155Z,19.49
2023-02-16T21:03:21.525Z,19.63
2023-02-16T21:05:47.872Z,17.84
2023-02-16T21:08:14.232Z,19.28
2023-02-16T21:10:40.598Z,19.47
2023-02-16T21:13:06.989Z,19.72
2023-02-16T21:15:33.348Z,19.08
2023-02-16T21:17:59.742Z,18.62
2023-02-16T21:20:26.117Z,17.90
2023-02-16T21:22:52.458Z,17.68
2023-02-16T21:25:18.845Z,18.26
2023-02-16T21:27:45.258Z,19.93
2023-02-16T21:30:11.709Z,19.34
2023-02-16T21:32:38.081Z,19.04
2023-02-16T21:35:04.431Z,18.61
2023-02-16T21:37:30.771Z,18.58
2023-02-16T21:39:57.127Z,18.81
2023-02-16T21:42:23.478Z,19.04
2023-02-16T21:44:49.846Z,19.30
2023-02-16T21:47:16.198Z,19.85
2023-02-16T21:49:42.557Z,20.33
2023-02-16T21:52:08.942Z,20.55
2023-02-16T21:54:35.306Z,21.28
2023-02-16T21:57:01.660Z,21.28
2023-02-16T21:59:28.032Z,21.57
2023-02-16T22:01:54.426Z,20.98
2023-02-16T22:04:20.894Z,20.88
2023-02-16T22:06:47.318Z,19.87
2023-02-16T22:09:13.742Z,19.55
2023-02-16T22:11:40.099Z,19.38
2023-02-16T22:14:06.440Z,19.46
2023-02-16T22:16:32.847Z,19.58
2023-02-16T22:18:59.382Z,19.70
2023-02-16T22:21:25.742Z,19.79
2023-02-16T22:23:52.154Z,19.42
2023-02-16T22:26:18.554Z,17.85
2023-02-16T22:28:44.930Z,18.31
2023-02-16T22:31:11.375Z,17.33
2023-02-16T22:33:37.839Z,17.21
2023-02-16T22:36:04.510Z,18.27
2023-02-16T22:38:31.044Z,16.81
2023-02-16T22:40:57.388Z,17.18
2023-02-16T22:43:23.792Z,16.99
2023-02-16T22:45:50.255Z,18.00
2023-02-16T22:48:16.653Z,18.26
2023-02-16T22:50:43.004Z,17.15
2023-02-16T22:53:09.347Z,18.67
2023-02-16T22:55:35.744Z,18.72
2023-02-16T22:58:02.111Z,18.30
2023-02-16T23:00:28.503Z,19.07
2023-02-16T23:02:54.855Z,18.60
2023-02-16T23:05:21.239Z,18.44
2023-02-16T23:07:47.598Z,18.39
2023-02-16T23:10:13.984Z,18.22
2023-02-16T23:12:40.392Z,18.49
2023-02-16T23:15:06.794Z,18.22
2023-02-16T23:17:33.209Z,18.98
2023-02-16T23:19:59.562Z,19.25
2023-02-16T23:22:25.935Z,18.57
2023-02-16T23:24:52.373Z,18.18
2023-02-16T23:27:18.763Z,18.09
2023-02-16T23:29:45.162Z,18.52
2023-02-16T23:32:11.579Z,18.47
2023-02-16T23:34:37.974Z,17.99
2023-02-16T23:37:04.374Z,17.87
2023-02-16T23:39:30.781Z,17.71
2023-02-16T23:41:57.152Z,17.29
2023-02-16T23:44:23.544Z,16.37
2023-02-16T23:46:49.892Z,16.92
2023-02-16T23:49:16.262Z,17.24
2023-02-16T23:51:42.629Z,17.11
2023-02-16T23:54:09.020Z,17.07
2023-02-16T23:56:35.379Z,16.26
2023-02-16T23:59:01.811Z,16.30
